createdAt,value
2023-06-21T00:01:05.658Z,97.50
2023-06-21T00:03:32.664Z,97.50
2023-06-21T00:05:59.638Z,97.70
2023-06-21T00:08:26.537Z,97.30
2023-06-21T00:10:53.940Z,97.10
2023-06-21T00:13:20.854Z,97.20
2023-06-21T00:15:47.700Z,97.30
2023-06-21T00:18:15.081Z,97.30
2023-06-21T00:20:41.881Z,97.10
2023-06-21T00:23:09.491Z,97.00
2023-06-21T00:25:39.176Z,96.90
2023-06-21T00:28:06.714Z,96.90
2023-06-21T00:30:33.623Z,96.70
2023-06-21T00:33:01.608Z,96.90
2023-06-21T00:35:28.556Z,96.80
2023-06-21T00:37:56.805Z,97.30
2023-06-21T00:40:35.681Z,96.90
2023-06-21T00:43:04.661Z,96.90
2023-06-21T00:45:39.304Z,97.10
2023-06-21T00:48:07.174Z,97.50
2023-06-21T00:50:34.088Z,97.80
2023-06-21T00:53:01.091Z,98.00
2023-06-21T00:55:28.110Z,98.20
2023-06-21T00:57:58.321Z,98.40
2023-06-21T01:00:26.697Z,98.50
2023-06-21T01:02:58.012Z,98.60
2023-06-21T01:05:26.404Z,98.60
2023-06-21T01:08:13.898Z,98.80
2023-06-21T01:11:13.291Z,99.00
2023-06-21T01:13:56.211Z,99.10
2023-06-21T01:16:27.521Z,99.00
2023-06-21T01:18:55.294Z,99.10
2023-06-21T01:21:25.443Z,99.20
2023-06-21T01:24:19.255Z,99.40
2023-06-21T01:27:07.879Z,99.60
2023-06-21T01:32:28.937Z,99.80
2023-06-21T01:34:57.271Z,99.90
2023-06-21T01:37:25.008Z,99.60
2023-06-21T01:39:53.224Z,99.20
2023-06-21T01:42:20.412Z,99.10
2023-06-21T01:44:48.292Z,98.70
2023-06-21T01:47:16.155Z,98.90
2023-06-21T01:49:43.902Z,98.90
2023-06-21T01:52:11.634Z,99.00
2023-06-21T01:54:42.506Z,98.80
2023-06-21T01:57:12.042Z,98.90
2023-06-21T01:59:39.353Z,98.50
2023-06-21T02:02:06.763Z,98.10
2023-06-21T02:04:34.861Z,97.90
2023-06-21T02:07:03.493Z,97.50
2023-06-21T02:09:32.652Z,97.20
2023-06-21T02:12:01.331Z,97.20
2023-06-21T02:14:29.083Z,96.90
2023-06-21T02:16:56.147Z,96.80
2023-06-21T02:19:25.962Z,96.60
2023-06-21T02:21:53.015Z,96.60
2023-06-21T02:24:19.990Z,96.50
2023-06-21T02:26:46.958Z,96.50
2023-06-21T02:29:13.829Z,96.50
2023-06-21T02:31:40.776Z,96.70
2023-06-21T02:34:07.700Z,96.90
2023-06-21T02:36:37.060Z,96.90
2023-06-21T02:39:05.238Z,97.00
2023-06-21T02:41:32.056Z,96.90
2023-06-21T02:43:58.865Z,97.00
2023-06-21T02:46:25.692Z,97.10
2023-06-21T02:48:52.578Z,97.20
2023-06-21T02:51:21.953Z,97.40
2023-06-21T02:53:48.922Z,97.40
2023-06-21T02:56:15.772Z,97.60
2023-06-21T02:58:42.574Z,97.70
2023-06-21T03:01:09.478Z,97.70
2023-06-21T03:03:45.349Z,97.70
2023-06-21T03:06:12.617Z,97.90
2023-06-21T03:08:39.987Z,97.90
2023-06-21T03:11:10.132Z,97.70
2023-06-21T03:13:38.949Z,97.80
2023-06-21T03:16:06.234Z,97.80
2023-06-21T03:18:33.465Z,97.80
2023-06-21T03:21:03.589Z,97.80
2023-06-21T03:23:31.454Z,97.80
2023-06-21T03:25:58.657Z,98.00
2023-06-21T03:28:25.724Z,98.00
2023-06-21T03:30:52.751Z,98.10
2023-06-21T03:33:20.405Z,98.10
2023-06-21T03:35:47.999Z,98.10
2023-06-21T03:38:15.604Z,98.30
2023-06-21T03:40:43.332Z,98.40
2023-06-21T03:43:10.335Z,98.70
2023-06-21T03:45:38.211Z,98.90
2023-06-21T03:48:06.395Z,99.00
2023-06-21T03:50:35.560Z,99.20
2023-06-21T03:53:02.456Z,99.10
2023-06-21T03:55:29.422Z,99.20
2023-06-21T03:57:56.596Z,99.10
2023-06-21T04:00:25.041Z,99.40
2023-06-21T04:02:54.148Z,99.50
2023-06-21T04:05:21.737Z,99.30
2023-06-21T04:07:48.669Z,99.20
2023-06-21T04:10:15.839Z,99.20
2023-06-21T04:12:42.856Z,99.20
2023-06-21T04:15:10.149Z,99.40
2023-06-21T04:17:39.625Z,99.60
2023-06-21T04:20:12.203Z,99.50
2023-06-21T04:22:41.899Z,99.20
2023-06-21T04:25:09.976Z,99.00
2023-06-21T04:27:36.859Z,99.10
2023-06-21T04:30:04.207Z,99.10
2023-06-21T04:32:33.492Z,99.20
2023-06-21T04:35:00.745Z,99.40
2023-06-21T04:37:29.940Z,99.70
2023-06-21T04:40:08.115Z,99.90
2023-06-21T04:42:39.517Z,99.90
2023-06-21T04:45:06.947Z,99.90
2023-06-21T04:47:33.835Z,99.90
2023-06-21T04:50:15.056Z,99.90
2023-06-21T04:52:49.036Z,99.90
2023-06-21T04:55:19.117Z,99.90
2023-06-21T04:57:48.009Z,99.90
2023-06-21T05:00:16.187Z,99.90
2023-06-21T05:02:43.458Z,99.90
2023-06-21T05:05:10.585Z,99.90
2023-06-21T05:07:39.887Z,99.90
2023-06-21T05:10:08.659Z,99.90
2023-06-21T05:12:36.396Z,99.90
2023-06-21T05:15:04.906Z,99.90
2023-06-21T05:17:32.071Z,99.90
2023-06-21T05:19:58.913Z,99.90
2023-06-21T05:22:25.766Z,99.90
2023-06-21T05:24:52.604Z,99.90
2023-06-21T05:27:19.840Z,99.90
2023-06-21T05:29:46.821Z,99.90
2023-06-21T05:32:13.771Z,99.90
2023-06-21T05:34:40.621Z,99.90
2023-06-21T05:37:07.429Z,99.90
2023-06-21T05:39:34.256Z,99.90
2023-06-21T05:42:01.091Z,99.90
2023-06-21T05:44:27.895Z,99.90
2023-06-21T05:46:54.772Z,99.90
2023-06-21T05:49:21.644Z,99.90
2023-06-21T05:51:48.427Z,99.90
2023-06-21T05:54:15.744Z,99.90
2023-06-21T05:56:42.693Z,99.90
2023-06-21T05:59:09.697Z,99.90
2023-06-21T06:01:37.371Z,99.90
2023-06-21T06:04:04.525Z,99.90
2023-06-21T06:06:40.242Z,99.90
2023-06-21T06:09:11.179Z,99.90
2023-06-21T06:11:38.282Z,99.90
2023-06-21T06:14:05.277Z,99.90
2023-06-21T06:16:32.379Z,99.90
2023-06-21T06:18:59.441Z,99.90
2023-06-21T06:21:26.374Z,99.90
2023-06-21T06:23:54.181Z,99.90
2023-06-21T06:26:27.612Z,99.90
2023-06-21T06:28:55.889Z,99.90
2023-06-21T06:31:27.230Z,99.90
2023-06-21T06:33:54.544Z,99.90
2023-06-21T06:36:21.849Z,99.90
2023-06-21T06:38:50.228Z,99.90
2023-06-21T06:41:18.496Z,99.90
2023-06-21T06:43:46.159Z,99.90
2023-06-21T06:46:13.437Z,99.90
2023-06-21T06:48:40.366Z,99.90
2023-06-21T06:51:07.218Z,99.90
2023-06-21T06:53:34.078Z,99.90
2023-06-21T06:56:01.165Z,99.90
2023-06-21T06:58:31.382Z,99.90
2023-06-21T07:00:58.321Z,99.50
2023-06-21T07:03:25.243Z,99.80
2023-06-21T07:05:52.280Z,99.00
2023-06-21T07:08:20.107Z,99.20
2023-06-21T07:10:47.180Z,98.00
2023-06-21T07:13:14.158Z,97.00
2023-06-21T07:15:41.001Z,97.60
2023-06-21T07:18:07.936Z,96.70
2023-06-21T07:20:35.880Z,97.30
2023-06-21T07:23:03.619Z,96.60
2023-06-21T07:25:31.098Z,95.30
2023-06-21T07:27:58.010Z,95.70
2023-06-21T07:30:25.188Z,96.70
2023-06-21T07:32:52.397Z,97.00
2023-06-21T07:35:19.355Z,97.30
2023-06-21T07:37:47.363Z,97.80
2023-06-21T07:40:15.033Z,98.20
2023-06-21T07:42:42.024Z,97.20
2023-06-21T07:45:09.895Z,95.50
2023-06-21T07:47:37.478Z,95.00
2023-06-21T07:50:20.852Z,94.50
2023-06-21T07:52:50.185Z,94.20
2023-06-21T07:55:17.277Z,93.40
2023-06-21T07:57:44.703Z,93.30
2023-06-21T08:00:13.512Z,93.70
2023-06-21T08:02:45.422Z,93.70
2023-06-21T08:05:14.528Z,94.10
2023-06-21T08:07:42.234Z,93.80
2023-06-21T08:10:10.145Z,93.40
2023-06-21T08:12:38.196Z,93.60
2023-06-21T08:15:06.516Z,92.70
2023-06-21T08:17:33.620Z,91.20
2023-06-21T08:20:00.818Z,90.80
2023-06-21T08:22:27.751Z,91.40
2023-06-21T08:24:56.168Z,91.50
2023-06-21T08:27:23.166Z,91.40
2023-06-21T08:29:50.104Z,92.40
2023-06-21T08:32:17.828Z,91.40
2023-06-21T08:34:44.724Z,90.40
2023-06-21T08:37:11.629Z,90.20
2023-06-21T08:39:38.652Z,90.10
2023-06-21T08:42:05.968Z,90.80
2023-06-21T08:44:32.807Z,90.60
2023-06-21T08:47:04.298Z,90.40
2023-06-21T08:49:38.300Z,89.40
2023-06-21T08:52:10.170Z,89.60
2023-06-21T08:54:40.856Z,88.80
2023-06-21T08:57:13.332Z,88.20
2023-06-21T08:59:51.090Z,90.00
2023-06-21T09:02:45.277Z,90.10
2023-06-21T09:05:20.914Z,89.70
2023-06-21T09:07:48.617Z,88.10
2023-06-21T09:10:17.941Z,88.80
2023-06-21T09:12:45.974Z,90.10
2023-06-21T09:15:14.064Z,90.80
2023-06-21T09:17:41.599Z,90.80
2023-06-21T09:20:10.126Z,89.10
2023-06-21T09:22:39.096Z,85.60
2023-06-21T09:25:06.457Z,87.30
2023-06-21T09:27:33.522Z,85.50
2023-06-21T09:30:16.900Z,85.80
2023-06-21T09:32:47.826Z,86.80
2023-06-21T09:35:15.126Z,86.40
2023-06-21T09:37:44.988Z,86.10
2023-06-21T09:40:13.480Z,84.80
2023-06-21T09:42:41.692Z,84.90
2023-06-21T09:45:12.836Z,84.40
2023-06-21T09:47:43.373Z,84.90
2023-06-21T09:50:11.611Z,84.40
2023-06-21T09:52:45.336Z,84.90
2023-06-21T09:55:16.665Z,84.30
2023-06-21T09:57:44.529Z,87.40
2023-06-21T10:00:11.973Z,85.30
2023-06-21T10:02:43.935Z,83.20
2023-06-21T10:05:21.112Z,81.10
2023-06-21T10:07:48.915Z,82.60
2023-06-21T10:10:15.843Z,80.20
2023-06-21T10:12:55.626Z,80.90
2023-06-21T10:15:23.813Z,79.70
2023-06-21T10:18:04.774Z,77.90
2023-06-21T10:20:33.991Z,76.90
2023-06-21T10:23:03.987Z,77.00
2023-06-21T10:25:32.005Z,78.00
2023-06-21T10:28:01.444Z,77.80
2023-06-21T10:30:30.163Z,78.00
2023-06-21T10:33:01.284Z,77.90
2023-06-21T10:35:31.205Z,78.00
2023-06-21T10:38:10.041Z,74.90
2023-06-21T10:40:37.903Z,74.80
2023-06-21T10:43:05.588Z,72.20
2023-06-21T10:45:34.647Z,74.00
2023-06-21T10:48:01.966Z,74.60
2023-06-21T10:50:29.672Z,75.60
2023-06-21T10:52:59.598Z,75.20
2023-06-21T10:55:27.798Z,73.10
2023-06-21T10:57:56.159Z,72.40
2023-06-21T11:00:25.308Z,74.20
2023-06-21T11:02:54.066Z,72.40
2023-06-21T11:05:23.270Z,73.60
2023-06-21T11:07:56.231Z,73.70
2023-06-21T11:10:31.256Z,73.20
2023-06-21T11:12:59.246Z,71.70
2023-06-21T11:15:26.970Z,71.50
2023-06-21T11:17:58.560Z,71.00
2023-06-21T11:20:26.918Z,71.10
2023-06-21T11:22:58.916Z,70.40
2023-06-21T11:25:26.290Z,70.60
2023-06-21T11:28:20.117Z,70.10
2023-06-21T11:31:04.757Z,69.50
2023-06-21T11:33:45.120Z,69.90
2023-06-21T11:36:12.096Z,68.50
2023-06-21T11:38:48.153Z,68.90
2023-06-21T11:41:44.088Z,68.30
2023-06-21T11:44:14.578Z,68.20
2023-06-21T11:46:43.583Z,68.80
2023-06-21T11:49:10.525Z,69.20
2023-06-21T11:51:56.428Z,68.50
2023-06-21T11:54:34.896Z,68.50
2023-06-21T11:57:06.555Z,70.70
2023-06-21T11:59:35.068Z,69.80
2023-06-21T12:02:18.086Z,69.20
2023-06-21T12:04:45.917Z,66.70
2023-06-21T12:07:13.088Z,66.80
2023-06-21T12:09:40.395Z,65.60
2023-06-21T12:12:08.125Z,66.10
2023-06-21T12:14:37.007Z,64.90
2023-06-21T12:17:04.712Z,64.90
2023-06-21T12:19:35.511Z,65.50
2023-06-21T12:22:03.818Z,65.60
2023-06-21T12:24:31.914Z,64.30
2023-06-21T12:27:01.889Z,62.50
2023-06-21T12:29:29.318Z,62.10
2023-06-21T12:31:59.052Z,62.20
2023-06-21T12:34:26.689Z,61.00
2023-06-21T12:36:56.449Z,61.60
2023-06-21T12:39:24.174Z,63.80
2023-06-21T12:41:51.324Z,60.40
2023-06-21T12:44:27.720Z,60.60
2023-06-21T12:46:54.991Z,60.70
2023-06-21T12:49:21.892Z,58.60
2023-06-21T12:51:49.624Z,58.20
2023-06-21T12:54:20.881Z,59.60
2023-06-21T12:56:50.989Z,60.00
2023-06-21T12:59:18.039Z,58.20
2023-06-21T13:01:44.980Z,58.00
2023-06-21T13:04:16.448Z,59.10
2023-06-21T13:06:44.124Z,59.20
2023-06-21T13:09:11.970Z,60.30
2023-06-21T13:11:39.925Z,60.90
2023-06-21T13:14:07.773Z,58.80
2023-06-21T13:16:34.995Z,59.70
2023-06-21T13:19:01.805Z,61.10
2023-06-21T13:21:29.191Z,60.40
2023-06-21T13:23:58.125Z,59.80
2023-06-21T13:26:25.568Z,59.60
2023-06-21T13:28:52.488Z,58.50
2023-06-21T13:31:22.743Z,57.40
2023-06-21T13:33:50.677Z,57.40
2023-06-21T13:36:20.125Z,56.40
2023-06-21T13:38:49.119Z,55.60
2023-06-21T13:41:16.074Z,55.40
2023-06-21T13:43:43.045Z,56.10
2023-06-21T13:46:10.028Z,55.90
2023-06-21T13:48:37.069Z,56.30
2023-06-21T13:51:04.004Z,56.30
2023-06-21T13:53:30.993Z,56.80
2023-06-21T13:55:58.246Z,57.70
2023-06-21T13:58:27.523Z,56.50
2023-06-21T14:00:54.418Z,56.50
2023-06-21T14:03:21.462Z,55.60
2023-06-21T14:05:49.047Z,55.90
2023-06-21T14:08:16.220Z,56.30
2023-06-21T14:10:43.048Z,56.30
2023-06-21T14:13:09.893Z,55.20
2023-06-21T14:15:36.828Z,55.30
2023-06-21T14:18:04.779Z,55.30
2023-06-21T14:20:32.200Z,53.90
2023-06-21T14:22:59.483Z,53.80
2023-06-21T14:25:26.482Z,53.90
2023-06-21T14:27:53.398Z,52.90
2023-06-21T14:30:20.516Z,53.30
2023-06-21T14:32:48.373Z,52.20
2023-06-21T14:35:15.857Z,51.20
2023-06-21T14:37:46.930Z,51.40
2023-06-21T14:40:13.964Z,51.50
2023-06-21T14:42:40.914Z,52.80
2023-06-21T14:45:08.253Z,51.30
2023-06-21T14:47:35.278Z,51.60
2023-06-21T14:50:04.139Z,52.20
2023-06-21T14:52:32.648Z,51.90
2023-06-21T14:54:59.580Z,51.50
2023-06-21T14:57:26.511Z,51.10
2023-06-21T14:59:53.621Z,50.80
2023-06-21T15:02:20.676Z,50.30
2023-06-21T15:04:47.587Z,50.20
2023-06-21T15:07:19.084Z,49.70
2023-06-21T15:09:46.865Z,49.60
2023-06-21T15:12:13.709Z,48.80
2023-06-21T15:14:40.626Z,49.60
2023-06-21T15:17:07.871Z,49.00
2023-06-21T15:19:34.746Z,48.10
2023-06-21T15:22:01.654Z,47.60
2023-06-21T15:24:28.532Z,47.90
2023-06-21T15:26:55.305Z,47.40
2023-06-21T15:29:22.282Z,47.70
2023-06-21T15:31:49.422Z,47.60
2023-06-21T15:34:16.402Z,47.50
2023-06-21T15:36:43.315Z,46.70
2023-06-21T15:39:10.591Z,46.40
2023-06-21T15:41:38.179Z,46.40
2023-06-21T15:44:06.112Z,47.00
2023-06-21T15:46:34.201Z,47.50
2023-06-21T15:49:01.737Z,47.60
2023-06-21T15:51:28.657Z,47.30
2023-06-21T15:53:56.993Z,47.00
2023-06-21T15:56:25.781Z,47.20
2023-06-21T15:58:52.937Z,47.20
2023-06-21T16:01:21.120Z,47.00
2023-06-21T16:03:49.092Z,47.20
2023-06-21T16:06:16.620Z,47.60
2023-06-21T16:08:43.940Z,47.80
2023-06-21T16:11:12.453Z,47.90
2023-06-21T16:13:46.448Z,48.40
2023-06-21T16:16:15.277Z,49.20
2023-06-21T16:18:42.663Z,49.10
2023-06-21T16:21:09.770Z,49.40
2023-06-21T16:23:36.784Z,49.30
2023-06-21T16:26:03.857Z,49.70
2023-06-21T16:28:31.520Z,49.50
2023-06-21T16:30:58.636Z,49.30
2023-06-21T16:33:25.512Z,49.60
2023-06-21T16:35:52.536Z,49.70
2023-06-21T16:38:20.230Z,50.00
2023-06-21T16:40:47.416Z,50.10
2023-06-21T16:43:15.623Z,51.60
2023-06-21T16:45:42.816Z,51.00
2023-06-21T16:48:10.104Z,51.20
2023-06-21T16:50:37.098Z,51.20
2023-06-21T16:53:03.981Z,51.50
2023-06-21T16:55:31.461Z,52.10
2023-06-21T16:57:58.561Z,52.10
2023-06-21T17:00:25.443Z,52.20
2023-06-21T17:02:54.485Z,52.70
2023-06-21T17:05:25.430Z,53.20
2023-06-21T17:07:53.292Z,53.50
2023-06-21T17:10:20.573Z,54.20
2023-06-21T17:12:47.963Z,55.60
2023-06-21T17:15:15.245Z,56.60
2023-06-21T17:17:44.776Z,59.40
2023-06-21T17:20:11.991Z,67.70
2023-06-21T17:22:39.298Z,80.70
2023-06-21T17:25:06.828Z,90.50
2023-06-21T17:27:33.770Z,94.40
2023-06-21T17:30:00.706Z,99.30
2023-06-21T17:32:27.666Z,99.90
2023-06-21T17:34:54.673Z,99.90
2023-06-21T17:37:21.631Z,99.90
2023-06-21T17:39:48.925Z,99.90
2023-06-21T17:42:15.908Z,99.90
2023-06-21T17:44:43.443Z,99.90
2023-06-21T17:47:11.152Z,99.90
2023-06-21T17:49:37.951Z,99.90
2023-06-21T17:52:05.249Z,99.90
2023-06-21T17:54:33.372Z,99.90
2023-06-21T17:57:00.418Z,99.90
2023-06-21T17:59:27.411Z,99.90
2023-06-21T18:01:55.387Z,99.90
2023-06-21T18:04:22.338Z,99.90
2023-06-21T18:06:49.389Z,99.90
2023-06-21T18:09:16.276Z,99.90
2023-06-21T18:11:46.444Z,99.90
2023-06-21T18:14:13.489Z,99.90
2023-06-21T18:16:41.419Z,99.90
2023-06-21T18:19:08.273Z,99.90
2023-06-21T18:21:35.167Z,99.90
2023-06-21T18:24:11.648Z,99.90
2023-06-21T18:26:38.707Z,99.90
2023-06-21T18:29:05.802Z,99.90
2023-06-21T18:31:33.107Z,99.90
2023-06-21T18:34:00.470Z,99.90
2023-06-21T18:36:27.666Z,99.90
2023-06-21T18:38:54.750Z,99.90
2023-06-21T18:41:21.724Z,99.90
2023-06-21T18:43:48.608Z,99.90
2023-06-21T18:46:15.621Z,99.90
2023-06-21T18:48:42.959Z,99.90
2023-06-21T18:51:10.178Z,99.90
2023-06-21T18:53:37.047Z,99.90
2023-06-21T18:56:04.221Z,99.90
2023-06-21T18:58:31.083Z,99.90
2023-06-21T19:00:57.909Z,99.90
2023-06-21T19:03:24.924Z,99.90
2023-06-21T19:05:52.148Z,99.90
2023-06-21T19:08:18.992Z,99.90
2023-06-21T19:10:46.576Z,99.90
2023-06-21T19:13:15.488Z,99.90
2023-06-21T19:15:42.557Z,99.90
2023-06-21T19:18:09.591Z,99.90
2023-06-21T19:20:36.909Z,99.90
2023-06-21T19:23:03.808Z,99.90
2023-06-21T19:25:31.298Z,99.90
2023-06-21T19:27:58.292Z,99.90
2023-06-21T19:30:25.214Z,99.90
2023-06-21T19:32:52.133Z,99.90
2023-06-21T19:35:22.321Z,99.90
2023-06-21T19:37:49.902Z,99.90
2023-06-21T19:40:17.065Z,99.90
2023-06-21T19:42:45.839Z,99.90
2023-06-21T19:45:14.133Z,99.90
2023-06-21T19:47:41.060Z,99.90
2023-06-21T19:50:09.078Z,99.90
2023-06-21T19:52:36.486Z,99.90
2023-06-21T19:55:04.715Z,99.90
2023-06-21T19:57:31.735Z,99.90
2023-06-21T19:59:58.745Z,99.90
2023-06-21T20:02:26.043Z,99.90
2023-06-21T20:04:57.244Z,99.90
2023-06-21T20:07:24.850Z,99.90
2023-06-21T20:09:52.520Z,99.90
2023-06-21T20:12:19.421Z,99.90
2023-06-21T20:14:46.409Z,99.90
2023-06-21T20:17:13.402Z,99.90
2023-06-21T20:19:40.303Z,99.90
2023-06-21T20:22:07.222Z,99.90
2023-06-21T20:24:34.096Z,99.90
2023-06-21T20:27:01.037Z,99.90
2023-06-21T20:29:27.950Z,99.90
2023-06-21T20:31:54.999Z,99.90
2023-06-21T20:34:21.851Z,99.90
2023-06-21T20:36:48.908Z,99.90
2023-06-21T20:39:17.007Z,99.90
2023-06-21T20:41:47.611Z,99.90
2023-06-21T20:44:15.612Z,99.90
2023-06-21T20:46:44.129Z,99.90
2023-06-21T20:49:11.624Z,99.90
2023-06-21T20:51:39.527Z,99.90
2023-06-21T20:54:12.247Z,99.90
2023-06-21T20:56:40.031Z,99.90
2023-06-21T20:59:07.462Z,99.90
2023-06-21T21:01:40.469Z,99.90
2023-06-21T21:04:09.387Z,99.90
2023-06-21T21:06:36.955Z,99.90
2023-06-21T21:09:04.708Z,99.90
2023-06-21T21:11:31.738Z,99.90
2023-06-21T21:14:01.424Z,99.90
2023-06-21T21:16:28.989Z,99.90
2023-06-21T21:18:55.894Z,99.90
2023-06-21T21:21:22.794Z,99.90
2023-06-21T21:23:51.525Z,99.90
2023-06-21T21:26:18.475Z,99.90
2023-06-21T21:28:45.484Z,99.90
2023-06-21T21:31:12.555Z,99.90
2023-06-21T21:33:39.541Z,99.90
2023-06-21T21:36:06.599Z,99.90
2023-06-21T21:38:33.580Z,99.90
2023-06-21T21:41:00.548Z,99.90
2023-06-21T21:43:27.549Z,99.90
2023-06-21T21:45:54.374Z,99.90
2023-06-21T21:48:21.291Z,99.90
2023-06-21T21:50:48.100Z,99.90
2023-06-21T21:53:17.975Z,99.90
2023-06-21T21:55:48.242Z,99.90
2023-06-21T21:58:15.087Z,99.90
2023-06-21T22:00:46.191Z,99.90
2023-06-21T22:03:13.606Z,99.90
2023-06-21T22:05:40.628Z,99.90
2023-06-21T22:08:07.607Z,99.90
2023-06-21T22:10:39.396Z,99.90
2023-06-21T22:13:10.909Z,99.90
2023-06-21T22:15:52.060Z,99.90
2023-06-21T22:18:27.365Z,99.90
2023-06-21T22:20:59.217Z,99.90
2023-06-21T22:23:33.525Z,99.90
2023-06-21T22:26:02.313Z,99.90
2023-06-21T22:28:29.573Z,99.90
2023-06-21T22:30:57.428Z,99.90
2023-06-21T22:33:25.505Z,99.90
2023-06-21T22:35:52.520Z,99.90
2023-06-21T22:38:19.494Z,99.90
2023-06-21T22:40:46.407Z,99.90
2023-06-21T22:43:13.258Z,99.90
2023-06-21T22:45:44.994Z,99.90
2023-06-21T22:48:14.513Z,99.90
2023-06-21T22:50:43.810Z,99.90
2023-06-21T22:53:11.265Z,99.90
2023-06-21T22:55:38.126Z,99.90
2023-06-21T22:58:05.479Z,99.90
2023-06-21T23:00:32.450Z,99.90
2023-06-21T23:02:59.785Z,99.90
2023-06-21T23:05:30.304Z,99.90
2023-06-21T23:08:02.051Z,99.90
2023-06-21T23:10:29.886Z,99.90
2023-06-21T23:12:57.364Z,99.90
2023-06-21T23:15:25.524Z,99.90
2023-06-21T23:17:55.180Z,99.90
2023-06-21T23:20:22.613Z,99.90
2023-06-21T23:22:49.773Z,99.90
2023-06-21T23:25:18.344Z,99.90
2023-06-21T23:27:45.606Z,99.90
2023-06-21T23:30:34.759Z,99.90
2023-06-21T23:33:03.886Z,99.90
2023-06-21T23:35:38.794Z,99.90
2023-06-21T23:38:07.111Z,99.90
2023-06-21T23:40:34.555Z,99.90
2023-06-21T23:43:01.532Z,99.90
2023-06-21T23:45:28.320Z,99.90
2023-06-21T23:47:55.327Z,99.90
2023-06-21T23:50:22.200Z,99.90
2023-06-21T23:52:49.018Z,99.90
2023-06-21T23:55:18.424Z,99.90
2023-06-21T23:57:45.568Z,99.90
